This is the latest recevied weather packets stored in our database for station/object N9XTN-3. If no packets are shown the sender has not sent any weather packets the latest 10 day(s).
| Time | Temp. | Humidity | Pressure | Rain* | Wind** | Luminosity | Snow |
|---|---|---|---|---|---|---|---|
| 1777169117 | 11.11° C | 92% | 1012.9 hPa | 3.56 mm | - | - | - |
| 1777167917 | 11.11° C | 91% | 1011.8 hPa | 1.78 mm | - | - | - |
| 1777167638 | 11.11° C | 90% | 1011.6 hPa | 1.27 mm | - | - | - |
| 1777165217 | 11.67° C | 89% | 1010 hPa | 0.51 mm | - | - | - |
| 1777164617 | 12.22° C | 88% | 1010.1 hPa | 0.25 mm | - | - | - |
| 1777159817 | 16.11° C | 71% | 1009 hPa | 0 mm | - | - | - |
| 1777159518 | 16.67° C | 67% | 1009.1 hPa | 0 mm | - | - | - |
| 1777158017 | 18.33° C | 61% | 1009.1 hPa | 0 mm | - | - | - |
| 1777155617 | 19.44° C | 59% | 1009.2 hPa | 0 mm | - | - | - |
| 1777155017 | 19.44° C | 60% | 1009.5 hPa | 0 mm | - | - | - |
| 1777154417 | 19.44° C | 61% | 1009.4 hPa | 0 mm | - | - | - |
| 1777153817 | 19.44° C | 61% | 1009.3 hPa | 0 mm | - | - | - |
| 1777150817 | 18.89° C | 61% | 1009.9 hPa | 0 mm | - | - | - |
| 1777150538 | 18.89° C | 62% | 1010 hPa | 0 mm | - | - | - |
| 1777149617 | 18.89° C | 61% | 1010.2 hPa | 0 mm | - | - | - |
| 1777147518 | 18.33° C | 60% | 1009.7 hPa | 0 mm | - | - | - |
| 1777147217 | 18.33° C | 60% | 1010.3 hPa | 0 mm | - | - | - |
| 1777143918 | 18.33° C | 64% | 1010.3 hPa | 0 mm | - | - | - |
| 1777143018 | 17.78° C | 59% | 1010.5 hPa | 0 mm | - | - | - |
| 1777135818 | 17.22° C | 63% | 1012.6 hPa | 0 mm | - | - | - |
| 1777134017 | 16.67° C | 67% | 1013.1 hPa | 0 mm | - | - | - |
| 1777131017 | 15.56° C | 64% | 1013.3 hPa | 0 mm | - | - | - |
| 1777128617 | 15° C | 66% | 1013.2 hPa | 0 mm | - | - | - |
| 1777128317 | 15° C | 67% | 1013.2 hPa | 0 mm | - | - | - |
| 1777124117 | 12.22° C | 73% | 1013 hPa | 0 mm | - | - | - |
* Rain latest hour (hover to see other rain measurements)
** Current wind speed in m/s (hover to see current wind gust speed)